sensor_id;sensor_type;location;lat;lon;timestamp;P1;durP1;ratioP1;P2;durP2;ratioP2
5040;SDS011;2539;52.568;13.364;2024-03-02T00:00:19;63.60;;;42.43;;
5040;SDS011;2539;52.568;13.364;2024-03-02T00:02:48;72.20;;;45.33;;
5040;SDS011;2539;52.568;13.364;2024-03-02T00:05:16;64.80;;;43.83;;
5040;SDS011;2539;52.568;13.364;2024-03-02T00:07:48;65.67;;;44.87;;
5040;SDS011;2539;52.568;13.364;2024-03-02T00:10:23;69.53;;;48.07;;
5040;SDS011;2539;52.568;13.364;2024-03-02T00:12:55;68.23;;;43.83;;
5040;SDS011;2539;52.568;13.364;2024-03-02T00:15:38;63.23;;;44.90;;
5040;SDS011;2539;52.568;13.364;2024-03-02T00:18:20;66.90;;;45.30;;
5040;SDS011;2539;52.568;13.364;2024-03-02T00:20:52;67.63;;;43.00;;
5040;SDS011;2539;52.568;13.364;2024-03-02T00:23:27;67.90;;;44.30;;
5040;SDS011;2539;52.568;13.364;2024-03-02T00:25:56;62.00;;;42.53;;
5040;SDS011;2539;52.568;13.364;2024-03-02T00:28:23;62.73;;;42.20;;
5040;SDS011;2539;52.568;13.364;2024-03-02T00:31:02;60.63;;;42.57;;
5040;SDS011;2539;52.568;13.364;2024-03-02T00:33:34;57.57;;;41.73;;
5040;SDS011;2539;52.568;13.364;2024-03-02T00:36:02;57.63;;;41.53;;
5040;SDS011;2539;52.568;13.364;2024-03-02T00:38:29;67.00;;;42.57;;
5040;SDS011;2539;52.568;13.364;2024-03-02T00:41:00;59.87;;;42.97;;
5040;SDS011;2539;52.568;13.364;2024-03-02T00:43:38;60.40;;;43.10;;
5040;SDS011;2539;52.568;13.364;2024-03-02T00:46:15;60.80;;;40.50;;
5040;SDS011;2539;52.568;13.364;2024-03-02T00:48:47;67.27;;;42.30;;
5040;SDS011;2539;52.568;13.364;2024-03-02T00:51:17;58.87;;;40.47;;
5040;SDS011;2539;52.568;13.364;2024-03-02T00:53:43;126.67;;;82.37;;
5040;SDS011;2539;52.568;13.364;2024-03-02T00:56:10;58.53;;;41.07;;
5040;SDS011;2539;52.568;13.364;2024-03-02T00:58:38;60.27;;;43.20;;
5040;SDS011;2539;52.568;13.364;2024-03-02T01:01:07;61.50;;;41.03;;
5040;SDS011;2539;52.568;13.364;2024-03-02T01:03:33;59.73;;;40.37;;
5040;SDS011;2539;52.568;13.364;2024-03-02T01:06:04;65.80;;;40.60;;
5040;SDS011;2539;52.568;13.364;2024-03-02T01:08:30;59.67;;;39.67;;
5040;SDS011;2539;52.568;13.364;2024-03-02T01:10:57;60.90;;;41.27;;
5040;SDS011;2539;52.568;13.364;2024-03-02T01:13:23;59.10;;;42.93;;
5040;SDS011;2539;52.568;13.364;2024-03-02T01:15:53;63.97;;;41.27;;
5040;SDS011;2539;52.568;13.364;2024-03-02T01:18:19;64.20;;;41.30;;
5040;SDS011;2539;52.568;13.364;2024-03-02T01:20:49;59.00;;;39.80;;
5040;SDS011;2539;52.568;13.364;2024-03-02T01:23:30;60.63;;;41.30;;
5040;SDS011;2539;52.568;13.364;2024-03-02T01:25:56;57.70;;;40.40;;
5040;SDS011;2539;52.568;13.364;2024-03-02T01:28:25;61.67;;;40.63;;
5040;SDS011;2539;52.568;13.364;2024-03-02T01:30:51;63.40;;;39.47;;
5040;SDS011;2539;52.568;13.364;2024-03-02T01:33:17;57.43;;;38.93;;
5040;SDS011;2539;52.568;13.364;2024-03-02T01:35:45;59.17;;;39.70;;
5040;SDS011;2539;52.568;13.364;2024-03-02T01:38:11;56.07;;;39.77;;
5040;SDS011;2539;52.568;13.364;2024-03-02T01:40:37;58.00;;;39.20;;
5040;SDS011;2539;52.568;13.364;2024-03-02T01:43:03;60.27;;;40.00;;
5040;SDS011;2539;52.568;13.364;2024-03-02T01:45:30;65.10;;;40.00;;
5040;SDS011;2539;52.568;13.364;2024-03-02T01:47:56;59.40;;;41.27;;
5040;SDS011;2539;52.568;13.364;2024-03-02T01:50:29;59.63;;;41.03;;
5040;SDS011;2539;52.568;13.364;2024-03-02T01:52:59;58.67;;;41.20;;
5040;SDS011;2539;52.568;13.364;2024-03-02T01:55:26;59.60;;;39.67;;
5040;SDS011;2539;52.568;13.364;2024-03-02T01:57:54;63.13;;;42.67;;
5040;SDS011;2539;52.568;13.364;2024-03-02T02:00:21;65.40;;;41.57;;
5040;SDS011;2539;52.568;13.364;2024-03-02T02:02:48;64.17;;;42.67;;
5040;SDS011;2539;52.568;13.364;2024-03-02T02:05:15;69.07;;;44.30;;
5040;SDS011;2539;52.568;13.364;2024-03-02T02:07:43;63.07;;;42.70;;
5040;SDS011;2539;52.568;13.364;2024-03-02T02:10:10;67.90;;;42.53;;
5040;SDS011;2539;52.568;13.364;2024-03-02T02:12:36;68.30;;;43.37;;
5040;SDS011;2539;52.568;13.364;2024-03-02T02:15:03;68.90;;;43.87;;
5040;SDS011;2539;52.568;13.364;2024-03-02T02:17:46;68.83;;;44.43;;
5040;SDS011;2539;52.568;13.364;2024-03-02T02:20:13;68.40;;;45.60;;
5040;SDS011;2539;52.568;13.364;2024-03-02T02:22:39;69.67;;;45.50;;
5040;SDS011;2539;52.568;13.364;2024-03-02T02:25:05;65.80;;;44.90;;
5040;SDS011;2539;52.568;13.364;2024-03-02T02:27:32;77.53;;;43.40;;
5040;SDS011;2539;52.568;13.364;2024-03-02T02:29:58;66.57;;;44.63;;
5040;SDS011;2539;52.568;13.364;2024-03-02T02:32:26;61.20;;;41.60;;
5040;SDS011;2539;52.568;13.364;2024-03-02T02:34:53;66.83;;;43.20;;
5040;SDS011;2539;52.568;13.364;2024-03-02T02:37:19;66.63;;;43.73;;
5040;SDS011;2539;52.568;13.364;2024-03-02T02:39:45;75.47;;;43.57;;
5040;SDS011;2539;52.568;13.364;2024-03-02T02:42:12;73.03;;;46.30;;
5040;SDS011;2539;52.568;13.364;2024-03-02T02:44:38;70.00;;;44.97;;
5040;SDS011;2539;52.568;13.364;2024-03-02T02:47:05;59.40;;;41.63;;
5040;SDS011;2539;52.568;13.364;2024-03-02T02:49:31;63.60;;;43.03;;
5040;SDS011;2539;52.568;13.364;2024-03-02T02:51:57;66.43;;;44.60;;
5040;SDS011;2539;52.568;13.364;2024-03-02T02:54:24;63.33;;;41.00;;
5040;SDS011;2539;52.568;13.364;2024-03-02T02:56:50;63.10;;;43.40;;
5040;SDS011;2539;52.568;13.364;2024-03-02T02:59:16;67.83;;;43.43;;
5040;SDS011;2539;52.568;13.364;2024-03-02T03:01:42;59.17;;;42.67;;
5040;SDS011;2539;52.568;13.364;2024-03-02T03:04:09;59.60;;;41.63;;
5040;SDS011;2539;52.568;13.364;2024-03-02T03:06:35;61.60;;;42.87;;
5040;SDS011;2539;52.568;13.364;2024-03-02T03:09:01;60.40;;;41.83;;
5040;SDS011;2539;52.568;13.364;2024-03-02T03:11:28;59.57;;;41.37;;
5040;SDS011;2539;52.568;13.364;2024-03-02T03:13:54;61.73;;;42.40;;
5040;SDS011;2539;52.568;13.364;2024-03-02T03:16:20;68.27;;;43.80;;
5040;SDS011;2539;52.568;13.364;2024-03-02T03:18:46;68.87;;;44.50;;
5040;SDS011;2539;52.568;13.364;2024-03-02T03:21:12;72.87;;;45.10;;
5040;SDS011;2539;52.568;13.364;2024-03-02T03:23:38;68.47;;;43.60;;
5040;SDS011;2539;52.568;13.364;2024-03-02T03:26:03;57.60;;;41.33;;
5040;SDS011;2539;52.568;13.364;2024-03-02T03:28:29;68.07;;;43.37;;
5040;SDS011;2539;52.568;13.364;2024-03-02T03:30:56;64.57;;;42.50;;
5040;SDS011;2539;52.568;13.364;2024-03-02T03:33:22;66.47;;;42.20;;
5040;SDS011;2539;52.568;13.364;2024-03-02T03:35:48;63.80;;;42.60;;
5040;SDS011;2539;52.568;13.364;2024-03-02T03:38:14;61.50;;;42.33;;
5040;SDS011;2539;52.568;13.364;2024-03-02T03:40:41;65.43;;;43.03;;
5040;SDS011;2539;52.568;13.364;2024-03-02T03:43:07;70.20;;;44.57;;
5040;SDS011;2539;52.568;13.364;2024-03-02T03:45:34;66.37;;;45.00;;
5040;SDS011;2539;52.568;13.364;2024-03-02T03:48:00;66.10;;;43.40;;
5040;SDS011;2539;52.568;13.364;2024-03-02T03:50:27;63.43;;;43.17;;
5040;SDS011;2539;52.568;13.364;2024-03-02T03:52:53;64.37;;;43.23;;
5040;SDS011;2539;52.568;13.364;2024-03-02T03:55:20;58.70;;;43.07;;
5040;SDS011;2539;52.568;13.364;2024-03-02T03:57:46;62.37;;;42.90;;
5040;SDS011;2539;52.568;13.364;2024-03-02T04:00:12;64.20;;;42.93;;
5040;SDS011;2539;52.568;13.364;2024-03-02T04:02:39;61.17;;;42.57;;
5040;SDS011;2539;52.568;13.364;2024-03-02T04:05:05;68.57;;;41.70;;
5040;SDS011;2539;52.568;13.364;2024-03-02T04:07:35;65.20;;;43.40;;
5040;SDS011;2539;52.568;13.364;2024-03-02T04:10:09;62.53;;;43.27;;
5040;SDS011;2539;52.568;13.364;2024-03-02T04:12:36;61.07;;;40.87;;
5040;SDS011;2539;52.568;13.364;2024-03-02T04:15:03;57.63;;;40.87;;
5040;SDS011;2539;52.568;13.364;2024-03-02T04:17:33;59.13;;;40.53;;
5040;SDS011;2539;52.568;13.364;2024-03-02T04:19:59;59.13;;;41.23;;
5040;SDS011;2539;52.568;13.364;2024-03-02T04:22:27;65.20;;;42.20;;
5040;SDS011;2539;52.568;13.364;2024-03-02T04:24:53;55.53;;;40.80;;
5040;SDS011;2539;52.568;13.364;2024-03-02T04:27:20;55.17;;;39.80;;
5040;SDS011;2539;52.568;13.364;2024-03-02T04:29:46;56.47;;;39.60;;
5040;SDS011;2539;52.568;13.364;2024-03-02T04:32:12;56.30;;;39.90;;
5040;SDS011;2539;52.568;13.364;2024-03-02T04:34:39;53.13;;;37.70;;
5040;SDS011;2539;52.568;13.364;2024-03-02T04:37:05;50.40;;;37.50;;
5040;SDS011;2539;52.568;13.364;2024-03-02T04:39:31;55.93;;;38.93;;
5040;SDS011;2539;52.568;13.364;2024-03-02T04:41:59;52.77;;;37.77;;
5040;SDS011;2539;52.568;13.364;2024-03-02T04:44:26;53.07;;;37.20;;
5040;SDS011;2539;52.568;13.364;2024-03-02T04:46:52;48.90;;;35.40;;
5040;SDS011;2539;52.568;13.364;2024-03-02T04:49:18;45.40;;;35.27;;
5040;SDS011;2539;52.568;13.364;2024-03-02T04:51:44;54.30;;;37.37;;
5040;SDS011;2539;52.568;13.364;2024-03-02T04:54:11;50.37;;;36.13;;
5040;SDS011;2539;52.568;13.364;2024-03-02T04:56:39;49.37;;;36.03;;
5040;SDS011;2539;52.568;13.364;2024-03-02T04:59:10;52.33;;;36.90;;
5040;SDS011;2539;52.568;13.364;2024-03-02T05:01:36;53.87;;;35.80;;
5040;SDS011;2539;52.568;13.364;2024-03-02T05:04:03;51.13;;;35.20;;
5040;SDS011;2539;52.568;13.364;2024-03-02T05:06:29;50.53;;;36.07;;
5040;SDS011;2539;52.568;13.364;2024-03-02T05:08:55;48.70;;;36.90;;
5040;SDS011;2539;52.568;13.364;2024-03-02T05:11:22;48.70;;;35.47;;
5040;SDS011;2539;52.568;13.364;2024-03-02T05:14:05;50.50;;;36.63;;
5040;SDS011;2539;52.568;13.364;2024-03-02T05:16:35;46.37;;;35.77;;
5040;SDS011;2539;52.568;13.364;2024-03-02T05:19:02;46.93;;;36.40;;
5040;SDS011;2539;52.568;13.364;2024-03-02T05:21:28;52.97;;;38.20;;
5040;SDS011;2539;52.568;13.364;2024-03-02T05:23:55;52.90;;;36.17;;
5040;SDS011;2539;52.568;13.364;2024-03-02T05:26:21;54.03;;;37.43;;
5040;SDS011;2539;52.568;13.364;2024-03-02T05:28:48;46.90;;;36.60;;
5040;SDS011;2539;52.568;13.364;2024-03-02T05:31:15;48.90;;;36.53;;
5040;SDS011;2539;52.568;13.364;2024-03-02T05:33:42;50.80;;;36.20;;
5040;SDS011;2539;52.568;13.364;2024-03-02T05:36:09;51.37;;;37.10;;
5040;SDS011;2539;52.568;13.364;2024-03-02T05:38:35;50.30;;;36.97;;
5040;SDS011;2539;52.568;13.364;2024-03-02T05:41:01;53.53;;;38.60;;
5040;SDS011;2539;52.568;13.364;2024-03-02T05:43:28;51.17;;;38.37;;
5040;SDS011;2539;52.568;13.364;2024-03-02T05:45:54;56.20;;;41.07;;
5040;SDS011;2539;52.568;13.364;2024-03-02T05:48:20;56.43;;;40.40;;
5040;SDS011;2539;52.568;13.364;2024-03-02T05:50:47;53.77;;;37.97;;
5040;SDS011;2539;52.568;13.364;2024-03-02T05:53:13;57.17;;;39.67;;
5040;SDS011;2539;52.568;13.364;2024-03-02T05:55:41;58.30;;;41.40;;
5040;SDS011;2539;52.568;13.364;2024-03-02T05:58:07;59.87;;;42.17;;
5040;SDS011;2539;52.568;13.364;2024-03-02T06:01:03;61.10;;;41.47;;
5040;SDS011;2539;52.568;13.364;2024-03-02T06:03:30;61.90;;;42.57;;
5040;SDS011;2539;52.568;13.364;2024-03-02T06:05:56;69.83;;;42.97;;
5040;SDS011;2539;52.568;13.364;2024-03-02T06:08:23;65.07;;;41.70;;
5040;SDS011;2539;52.568;13.364;2024-03-02T06:10:49;60.33;;;41.70;;
5040;SDS011;2539;52.568;13.364;2024-03-02T06:13:15;68.37;;;43.70;;
5040;SDS011;2539;52.568;13.364;2024-03-02T06:15:41;67.37;;;44.00;;
5040;SDS011;2539;52.568;13.364;2024-03-02T06:18:08;61.17;;;42.70;;
5040;SDS011;2539;52.568;13.364;2024-03-02T06:20:34;61.03;;;41.70;;
5040;SDS011;2539;52.568;13.364;2024-03-02T06:23:01;70.70;;;43.80;;
5040;SDS011;2539;52.568;13.364;2024-03-02T06:25:27;60.80;;;40.93;;
5040;SDS011;2539;52.568;13.364;2024-03-02T06:27:53;61.43;;;41.93;;
5040;SDS011;2539;52.568;13.364;2024-03-02T06:30:20;70.53;;;44.50;;
5040;SDS011;2539;52.568;13.364;2024-03-02T06:32:46;65.53;;;44.50;;
5040;SDS011;2539;52.568;13.364;2024-03-02T06:37:47;67.97;;;42.30;;
5040;SDS011;2539;52.568;13.364;2024-03-02T06:40:14;61.57;;;42.37;;
5040;SDS011;2539;52.568;13.364;2024-03-02T06:42:40;60.80;;;42.20;;
5040;SDS011;2539;52.568;13.364;2024-03-02T06:45:06;60.93;;;39.80;;
5040;SDS011;2539;52.568;13.364;2024-03-02T06:47:32;60.53;;;42.97;;
5040;SDS011;2539;52.568;13.364;2024-03-02T06:49:59;66.47;;;42.10;;
5040;SDS011;2539;52.568;13.364;2024-03-02T06:52:25;66.97;;;40.90;;
5040;SDS011;2539;52.568;13.364;2024-03-02T06:54:51;64.97;;;42.73;;
5040;SDS011;2539;52.568;13.364;2024-03-02T06:57:17;60.53;;;42.20;;
5040;SDS011;2539;52.568;13.364;2024-03-02T06:59:45;62.40;;;41.00;;
5040;SDS011;2539;52.568;13.364;2024-03-02T07:02:12;67.33;;;44.20;;
5040;SDS011;2539;52.568;13.364;2024-03-02T07:04:38;61.70;;;43.20;;
5040;SDS011;2539;52.568;13.364;2024-03-02T07:07:04;74.87;;;43.57;;
5040;SDS011;2539;52.568;13.364;2024-03-02T07:09:30;63.90;;;42.07;;
5040;SDS011;2539;52.568;13.364;2024-03-02T07:11:57;58.93;;;42.30;;
5040;SDS011;2539;52.568;13.364;2024-03-02T07:14:23;59.20;;;41.70;;
5040;SDS011;2539;52.568;13.364;2024-03-02T07:17:12;60.00;;;41.97;;
5040;SDS011;2539;52.568;13.364;2024-03-02T07:19:38;66.53;;;39.97;;
5040;SDS011;2539;52.568;13.364;2024-03-02T07:22:07;62.73;;;41.27;;
5040;SDS011;2539;52.568;13.364;2024-03-02T07:24:40;59.77;;;40.27;;
5040;SDS011;2539;52.568;13.364;2024-03-02T07:27:08;60.53;;;40.37;;
5040;SDS011;2539;52.568;13.364;2024-03-02T07:29:38;53.80;;;38.90;;
5040;SDS011;2539;52.568;13.364;2024-03-02T07:32:06;60.00;;;39.90;;
5040;SDS011;2539;52.568;13.364;2024-03-02T07:34:32;58.97;;;38.10;;
5040;SDS011;2539;52.568;13.364;2024-03-02T07:36:59;56.97;;;38.60;;
5040;SDS011;2539;52.568;13.364;2024-03-02T07:39:25;57.33;;;38.27;;
5040;SDS011;2539;52.568;13.364;2024-03-02T07:41:52;55.87;;;38.40;;
5040;SDS011;2539;52.568;13.364;2024-03-02T07:44:18;48.97;;;35.73;;
5040;SDS011;2539;52.568;13.364;2024-03-02T07:46:45;57.37;;;37.00;;
5040;SDS011;2539;52.568;13.364;2024-03-02T07:49:13;55.30;;;39.00;;
5040;SDS011;2539;52.568;13.364;2024-03-02T07:51:42;56.07;;;38.07;;
5040;SDS011;2539;52.568;13.364;2024-03-02T07:54:08;56.43;;;38.50;;
5040;SDS011;2539;52.568;13.364;2024-03-02T07:56:35;54.40;;;36.67;;
5040;SDS011;2539;52.568;13.364;2024-03-02T07:59:01;54.00;;;36.50;;
5040;SDS011;2539;52.568;13.364;2024-03-02T08:01:31;56.17;;;36.80;;
5040;SDS011;2539;52.568;13.364;2024-03-02T08:04:00;50.27;;;36.13;;
5040;SDS011;2539;52.568;13.364;2024-03-02T08:06:28;55.10;;;37.97;;
5040;SDS011;2539;52.568;13.364;2024-03-02T08:08:55;62.13;;;38.90;;
5040;SDS011;2539;52.568;13.364;2024-03-02T08:11:22;50.03;;;36.40;;
5040;SDS011;2539;52.568;13.364;2024-03-02T08:13:49;57.10;;;38.50;;
5040;SDS011;2539;52.568;13.364;2024-03-02T08:16:16;55.40;;;38.87;;
5040;SDS011;2539;52.568;13.364;2024-03-02T08:18:48;53.70;;;36.53;;
5040;SDS011;2539;52.568;13.364;2024-03-02T08:21:15;54.70;;;34.57;;
5040;SDS011;2539;52.568;13.364;2024-03-02T08:23:42;54.07;;;34.90;;
5040;SDS011;2539;52.568;13.364;2024-03-02T08:26:09;51.00;;;35.10;;
5040;SDS011;2539;52.568;13.364;2024-03-02T08:28:36;49.17;;;33.73;;
5040;SDS011;2539;52.568;13.364;2024-03-02T08:31:08;49.13;;;34.53;;
5040;SDS011;2539;52.568;13.364;2024-03-02T08:33:35;49.30;;;34.27;;
5040;SDS011;2539;52.568;13.364;2024-03-02T08:36:01;49.30;;;33.60;;
5040;SDS011;2539;52.568;13.364;2024-03-02T08:38:28;49.97;;;36.33;;
5040;SDS011;2539;52.568;13.364;2024-03-02T08:40:54;48.60;;;34.53;;
5040;SDS011;2539;52.568;13.364;2024-03-02T08:43:20;48.77;;;36.10;;
5040;SDS011;2539;52.568;13.364;2024-03-02T08:45:45;52.27;;;37.20;;
5040;SDS011;2539;52.568;13.364;2024-03-02T08:48:12;51.93;;;34.43;;
5040;SDS011;2539;52.568;13.364;2024-03-02T08:50:38;52.53;;;36.40;;
5040;SDS011;2539;52.568;13.364;2024-03-02T08:53:05;49.80;;;36.00;;
5040;SDS011;2539;52.568;13.364;2024-03-02T08:55:31;51.60;;;36.03;;
5040;SDS011;2539;52.568;13.364;2024-03-02T08:57:57;48.43;;;34.70;;
5040;SDS011;2539;52.568;13.364;2024-03-02T09:00:24;48.23;;;35.63;;
5040;SDS011;2539;52.568;13.364;2024-03-02T09:02:51;48.73;;;35.10;;
5040;SDS011;2539;52.568;13.364;2024-03-02T09:05:17;48.20;;;35.30;;
5040;SDS011;2539;52.568;13.364;2024-03-02T09:07:43;47.73;;;34.57;;
5040;SDS011;2539;52.568;13.364;2024-03-02T09:10:10;45.97;;;33.30;;
5040;SDS011;2539;52.568;13.364;2024-03-02T09:12:36;44.17;;;32.80;;
5040;SDS011;2539;52.568;13.364;2024-03-02T09:15:04;48.40;;;32.97;;
5040;SDS011;2539;52.568;13.364;2024-03-02T09:17:31;43.23;;;31.70;;
5040;SDS011;2539;52.568;13.364;2024-03-02T09:19:58;47.40;;;33.13;;
5040;SDS011;2539;52.568;13.364;2024-03-02T09:22:24;43.60;;;31.63;;
5040;SDS011;2539;52.568;13.364;2024-03-02T09:24:50;44.70;;;31.77;;
5040;SDS011;2539;52.568;13.364;2024-03-02T09:27:16;43.80;;;31.50;;
5040;SDS011;2539;52.568;13.364;2024-03-02T09:29:43;49.77;;;34.23;;
5040;SDS011;2539;52.568;13.364;2024-03-02T09:32:12;49.27;;;33.80;;
5040;SDS011;2539;52.568;13.364;2024-03-02T09:34:40;46.20;;;32.73;;
5040;SDS011;2539;52.568;13.364;2024-03-02T09:37:06;44.93;;;32.77;;
5040;SDS011;2539;52.568;13.364;2024-03-02T09:39:31;46.60;;;33.33;;
5040;SDS011;2539;52.568;13.364;2024-03-02T09:41:57;49.60;;;33.80;;
5040;SDS011;2539;52.568;13.364;2024-03-02T09:44:24;48.60;;;33.50;;
5040;SDS011;2539;52.568;13.364;2024-03-02T09:46:51;42.60;;;34.20;;
5040;SDS011;2539;52.568;13.364;2024-03-02T09:49:18;45.63;;;33.33;;
5040;SDS011;2539;52.568;13.364;2024-03-02T09:51:47;43.70;;;31.87;;
5040;SDS011;2539;52.568;13.364;2024-03-02T09:54:15;46.07;;;31.60;;
5040;SDS011;2539;52.568;13.364;2024-03-02T09:56:41;41.27;;;30.53;;
5040;SDS011;2539;52.568;13.364;2024-03-02T09:59:07;44.33;;;32.23;;
5040;SDS011;2539;52.568;13.364;2024-03-02T10:01:33;41.50;;;31.60;;
5040;SDS011;2539;52.568;13.364;2024-03-02T10:03:59;39.67;;;29.90;;
5040;SDS011;2539;52.568;13.364;2024-03-02T10:06:26;39.97;;;29.20;;
5040;SDS011;2539;52.568;13.364;2024-03-02T10:08:54;39.83;;;30.03;;
5040;SDS011;2539;52.568;13.364;2024-03-02T10:11:31;42.50;;;30.97;;
5040;SDS011;2539;52.568;13.364;2024-03-02T10:14:13;40.00;;;31.40;;
5040;SDS011;2539;52.568;13.364;2024-03-02T10:16:40;42.40;;;29.47;;
5040;SDS011;2539;52.568;13.364;2024-03-02T10:19:17;38.70;;;30.13;;
5040;SDS011;2539;52.568;13.364;2024-03-02T10:21:48;37.50;;;28.10;;
5040;SDS011;2539;52.568;13.364;2024-03-02T10:24:15;34.30;;;27.23;;
5040;SDS011;2539;52.568;13.364;2024-03-02T10:26:42;39.90;;;27.20;;
5040;SDS011;2539;52.568;13.364;2024-03-02T10:29:09;35.87;;;27.40;;
5040;SDS011;2539;52.568;13.364;2024-03-02T10:31:36;31.63;;;25.33;;
5040;SDS011;2539;52.568;13.364;2024-03-02T10:34:04;35.00;;;26.90;;
5040;SDS011;2539;52.568;13.364;2024-03-02T10:36:30;36.30;;;26.30;;
5040;SDS011;2539;52.568;13.364;2024-03-02T10:38:58;32.80;;;25.63;;
5040;SDS011;2539;52.568;13.364;2024-03-02T10:41:26;35.70;;;26.20;;
5040;SDS011;2539;52.568;13.364;2024-03-02T10:43:53;28.53;;;22.10;;
5040;SDS011;2539;52.568;13.364;2024-03-02T10:46:28;31.17;;;22.93;;
5040;SDS011;2539;52.568;13.364;2024-03-02T10:48:56;32.50;;;23.10;;
5040;SDS011;2539;52.568;13.364;2024-03-02T10:51:25;27.10;;;22.10;;
5040;SDS011;2539;52.568;13.364;2024-03-02T10:53:53;30.40;;;23.20;;
5040;SDS011;2539;52.568;13.364;2024-03-02T10:56:30;33.63;;;23.20;;
5040;SDS011;2539;52.568;13.364;2024-03-02T11:02:10;27.80;;;22.67;;
5040;SDS011;2539;52.568;13.364;2024-03-02T11:04:38;32.30;;;24.10;;
5040;SDS011;2539;52.568;13.364;2024-03-02T11:07:07;29.77;;;23.80;;
5040;SDS011;2539;52.568;13.364;2024-03-02T11:09:38;30.10;;;23.60;;
5040;SDS011;2539;52.568;13.364;2024-03-02T11:12:19;30.97;;;24.60;;
5040;SDS011;2539;52.568;13.364;2024-03-02T11:14:51;32.20;;;24.60;;
5040;SDS011;2539;52.568;13.364;2024-03-02T11:17:18;29.40;;;23.53;;
5040;SDS011;2539;52.568;13.364;2024-03-02T11:19:44;31.63;;;22.73;;
5040;SDS011;2539;52.568;13.364;2024-03-02T11:22:13;30.43;;;22.57;;
5040;SDS011;2539;52.568;13.364;2024-03-02T11:24:47;28.90;;;23.60;;
5040;SDS011;2539;52.568;13.364;2024-03-02T11:28:01;29.03;;;23.30;;
5040;SDS011;2539;52.568;13.364;2024-03-02T11:32:58;28.27;;;21.40;;
5040;SDS011;2539;52.568;13.364;2024-03-02T11:35:26;30.30;;;21.23;;
5040;SDS011;2539;52.568;13.364;2024-03-02T11:37:54;26.50;;;20.93;;
5040;SDS011;2539;52.568;13.364;2024-03-02T11:40:27;25.80;;;19.57;;
5040;SDS011;2539;52.568;13.364;2024-03-02T11:42:53;30.57;;;21.30;;
5040;SDS011;2539;52.568;13.364;2024-03-02T11:45:24;22.47;;;19.67;;
5040;SDS011;2539;52.568;13.364;2024-03-02T11:47:54;26.37;;;19.53;;
5040;SDS011;2539;52.568;13.364;2024-03-02T11:50:30;27.30;;;19.33;;
5040;SDS011;2539;52.568;13.364;2024-03-02T11:52:59;23.93;;;19.30;;
5040;SDS011;2539;52.568;13.364;2024-03-02T11:55:26;30.17;;;18.40;;
5040;SDS011;2539;52.568;13.364;2024-03-02T11:57:52;32.70;;;24.07;;
5040;SDS011;2539;52.568;13.364;2024-03-02T12:00:19;32.03;;;23.67;;
5040;SDS011;2539;52.568;13.364;2024-03-02T12:02:47;27.03;;;20.13;;
5040;SDS011;2539;52.568;13.364;2024-03-02T12:05:26;27.30;;;18.93;;
5040;SDS011;2539;52.568;13.364;2024-03-02T12:07:59;23.67;;;18.40;;
5040;SDS011;2539;52.568;13.364;2024-03-02T12:10:27;23.30;;;18.30;;
5040;SDS011;2539;52.568;13.364;2024-03-02T12:13:04;29.27;;;19.67;;
5040;SDS011;2539;52.568;13.364;2024-03-02T12:15:34;22.03;;;18.30;;
5040;SDS011;2539;52.568;13.364;2024-03-02T12:18:02;26.67;;;19.83;;
5040;SDS011;2539;52.568;13.364;2024-03-02T12:20:30;22.53;;;18.03;;
5040;SDS011;2539;52.568;13.364;2024-03-02T12:23:01;22.93;;;17.53;;
5040;SDS011;2539;52.568;13.364;2024-03-02T12:25:31;24.93;;;17.50;;
5040;SDS011;2539;52.568;13.364;2024-03-02T12:28:01;26.67;;;18.67;;
5040;SDS011;2539;52.568;13.364;2024-03-02T12:30:31;23.40;;;18.43;;
5040;SDS011;2539;52.568;13.364;2024-03-02T12:33:01;20.27;;;17.20;;
5040;SDS011;2539;52.568;13.364;2024-03-02T12:35:27;26.00;;;18.47;;
5040;SDS011;2539;52.568;13.364;2024-03-02T12:37:54;22.60;;;18.37;;
5040;SDS011;2539;52.568;13.364;2024-03-02T12:40:20;21.53;;;16.63;;
5040;SDS011;2539;52.568;13.364;2024-03-02T12:42:48;24.63;;;17.77;;
5040;SDS011;2539;52.568;13.364;2024-03-02T12:45:15;20.40;;;16.27;;
5040;SDS011;2539;52.568;13.364;2024-03-02T12:47:42;25.27;;;18.50;;
5040;SDS011;2539;52.568;13.364;2024-03-02T12:50:09;23.67;;;18.33;;
5040;SDS011;2539;52.568;13.364;2024-03-02T12:52:35;20.53;;;16.63;;
5040;SDS011;2539;52.568;13.364;2024-03-02T12:55:03;23.03;;;17.87;;
5040;SDS011;2539;52.568;13.364;2024-03-02T12:57:31;20.67;;;16.80;;
5040;SDS011;2539;52.568;13.364;2024-03-02T12:59:59;21.57;;;16.60;;
5040;SDS011;2539;52.568;13.364;2024-03-02T13:02:36;24.13;;;18.43;;
5040;SDS011;2539;52.568;13.364;2024-03-02T13:05:05;21.47;;;17.37;;
5040;SDS011;2539;52.568;13.364;2024-03-02T13:07:37;23.90;;;18.20;;
5040;SDS011;2539;52.568;13.364;2024-03-02T13:10:04;21.73;;;17.60;;
5040;SDS011;2539;52.568;13.364;2024-03-02T13:12:32;25.23;;;18.83;;
5040;SDS011;2539;52.568;13.364;2024-03-02T13:14:59;21.60;;;18.00;;
5040;SDS011;2539;52.568;13.364;2024-03-02T13:17:25;19.87;;;17.67;;
5040;SDS011;2539;52.568;13.364;2024-03-02T13:22:22;23.83;;;18.03;;
5040;SDS011;2539;52.568;13.364;2024-03-02T13:24:50;22.20;;;16.40;;
5040;SDS011;2539;52.568;13.364;2024-03-02T13:27:17;19.97;;;16.57;;
5040;SDS011;2539;52.568;13.364;2024-03-02T13:29:47;22.00;;;16.43;;
5040;SDS011;2539;52.568;13.364;2024-03-02T13:32:14;20.90;;;17.03;;
5040;SDS011;2539;52.568;13.364;2024-03-02T13:34:41;22.10;;;17.20;;
5040;SDS011;2539;52.568;13.364;2024-03-02T13:37:08;22.67;;;17.67;;
5040;SDS011;2539;52.568;13.364;2024-03-02T13:39:35;24.40;;;17.30;;
5040;SDS011;2539;52.568;13.364;2024-03-02T13:42:10;19.77;;;17.03;;
5040;SDS011;2539;52.568;13.364;2024-03-02T13:44:39;22.53;;;16.43;;
5040;SDS011;2539;52.568;13.364;2024-03-02T13:47:06;23.67;;;17.17;;
5040;SDS011;2539;52.568;13.364;2024-03-02T13:49:32;21.60;;;16.27;;
5040;SDS011;2539;52.568;13.364;2024-03-02T13:52:02;20.13;;;15.47;;
5040;SDS011;2539;52.568;13.364;2024-03-02T13:54:42;16.83;;;14.10;;
5040;SDS011;2539;52.568;13.364;2024-03-02T13:57:10;21.47;;;16.30;;
5040;SDS011;2539;52.568;13.364;2024-03-02T13:59:37;21.53;;;16.37;;
5040;SDS011;2539;52.568;13.364;2024-03-02T14:02:07;18.93;;;14.70;;
5040;SDS011;2539;52.568;13.364;2024-03-02T14:04:34;15.80;;;13.57;;
5040;SDS011;2539;52.568;13.364;2024-03-02T14:07:01;17.30;;;14.77;;
5040;SDS011;2539;52.568;13.364;2024-03-02T14:09:27;19.47;;;14.90;;
5040;SDS011;2539;52.568;13.364;2024-03-02T14:11:54;19.00;;;14.60;;
5040;SDS011;2539;52.568;13.364;2024-03-02T14:14:21;18.40;;;14.07;;
5040;SDS011;2539;52.568;13.364;2024-03-02T14:16:48;14.20;;;12.70;;
5040;SDS011;2539;52.568;13.364;2024-03-02T14:19:14;17.60;;;13.77;;
5040;SDS011;2539;52.568;13.364;2024-03-02T14:21:41;14.30;;;12.30;;
5040;SDS011;2539;52.568;13.364;2024-03-02T14:24:07;19.63;;;15.13;;
5040;SDS011;2539;52.568;13.364;2024-03-02T14:26:34;19.37;;;13.90;;
5040;SDS011;2539;52.568;13.364;2024-03-02T14:29:00;19.03;;;13.97;;
5040;SDS011;2539;52.568;13.364;2024-03-02T14:31:29;15.73;;;13.40;;
5040;SDS011;2539;52.568;13.364;2024-03-02T14:33:56;18.33;;;13.50;;
5040;SDS011;2539;52.568;13.364;2024-03-02T14:36:22;16.67;;;13.23;;
5040;SDS011;2539;52.568;13.364;2024-03-02T14:38:47;16.03;;;11.53;;
5040;SDS011;2539;52.568;13.364;2024-03-02T14:41:14;16.03;;;12.10;;
5040;SDS011;2539;52.568;13.364;2024-03-02T14:43:41;16.60;;;12.80;;
5040;SDS011;2539;52.568;13.364;2024-03-02T14:46:07;17.40;;;12.80;;
5040;SDS011;2539;52.568;13.364;2024-03-02T14:48:36;15.57;;;13.00;;